Cuaca Aktual Bandara Mali

Waktu Pengamatan : 2022-12-09 10:00:00 WITA


DAY-CLEAR-CLOUDY
Cerah - berawan
Suhu Udara
32 °C
Titik Embun
24 °C

Tekanan Udara 1008 hPa
Jarak Pandang >=10 km

Utara
Arah Angin
dari Utara
Kec. Angin
9.3 km/jam
METAR Terkini : METAR WATM 090200Z 34005KT 9999 FEW020 32/24 Q1008|NOSIG=